Time;durP1;ratioP1;P1;durP2;ratioP2;P2;SDS_P1;SDS_P2;PMS_P1;PMS_P2;Temp;Humidity;BMP_temperature;BMP_pressure;BME280_temperature;BME280_humidity;BME280_pressure;Samples;Min_cycle;Max_cycle;Signal;HPM_P1;HPM_P2
2022/01/14 00:01:21;;;;;;;4.32;4.03;;;1.60;95.10;;;;;;5069321;28;20202;-65
2022/01/14 00:03:48;;;;;;;4.95;4.55;;;1.60;95.40;;;;;;5068563;28;20635;-65
2022/01/14 00:06:16;;;;;;;4.13;3.83;;;1.60;95.40;;;;;;5067067;28;20202;-65
2022/01/14 00:08:43;;;;;;;4.60;4.30;;;1.50;95.50;;;;;;5067880;28;20278;-65
2022/01/14 00:11:15;;;;;;;4.40;4.10;;;1.50;95.50;;;;;;5073629;28;20189;-65
2022/01/14 00:13:55;;;;;;;4.70;4.35;;;1.50;95.50;;;;;;5074070;28;20582;-65
2022/01/14 00:16:22;;;;;;;4.70;4.32;;;1.50;95.50;;;;;;5074262;28;20194;-65
2022/01/14 00:18:49;;;;;;;4.53;4.22;;;1.60;95.70;;;;;;5074391;28;20650;-65
2022/01/14 00:21:17;;;;;;;4.18;3.88;;;1.60;95.80;;;;;;5074619;28;20248;-65
2022/01/14 00:23:47;;;;;;;4.43;4.13;;;1.60;95.90;;;;;;5073429;28;20583;-65
2022/01/14 00:31:43;;;;;;;4.13;3.92;;;1.50;95.70;;;;;;5070483;28;20342;-65
2022/01/14 00:34:11;;;;;;;4.13;3.92;;;1.50;95.80;;;;;;5072774;28;20225;-65
2022/01/14 00:36:40;;;;;;;4.57;4.28;;;1.50;95.80;;;;;;5073391;28;20655;-65
2022/01/14 00:39:08;;;;;;;4.80;4.50;;;1.50;95.90;;;;;;5071157;28;20294;-65
2022/01/14 00:41:36;;;;;;;4.40;4.13;;;1.50;95.90;;;;;;5068762;28;20206;-65
2022/01/14 00:44:06;;;;;;;4.40;4.18;;;1.50;95.90;;;;;;5074378;28;20271;-65
2022/01/14 00:46:33;;;;;;;4.03;3.72;;;1.60;96.20;;;;;;5067666;28;20198;-65
2022/01/14 00:49:01;;;;;;;4.10;3.80;;;1.60;96.40;;;;;;5074404;28;20307;-65
2022/01/14 00:51:28;;;;;;;4.25;3.95;;;1.70;96.40;;;;;;5071121;28;20206;-65
2022/01/14 00:53:56;;;;;;;4.05;3.85;;;1.70;96.50;;;;;;5068295;28;20643;-65
2022/01/14 00:56:30;;;;;;;4.18;3.83;;;1.80;96.20;;;;;;5074592;28;20206;-65
2022/01/14 00:59:15;;;;;;;4.10;3.80;;;1.80;96.40;;;;;;5076036;28;20243;-65
2022/01/14 01:01:44;;;;;;;3.88;3.67;;;1.80;96.00;;;;;;5076952;28;20197;-65
2022/01/14 01:04:12;;;;;;;4.50;4.20;;;1.80;95.80;;;;;;5074320;28;20221;-66
2022/01/14 01:06:39;;;;;;;4.40;4.10;;;1.80;95.70;;;;;;5077504;28;20202;-65
2022/01/14 01:09:11;;;;;;;4.47;4.15;;;1.70;95.90;;;;;;5073794;28;20218;-65
2022/01/14 01:11:42;;;;;;;4.00;3.70;;;1.70;96.20;;;;;;5078571;28;20585;-65
2022/01/14 01:14:12;;;;;;;4.18;3.85;;;1.60;96.40;;;;;;5073102;28;20253;-65
2022/01/14 01:16:39;;;;;;;5.60;5.15;;;1.50;96.50;;;;;;5072801;28;20252;-65
2022/01/14 01:19:07;;;;;;;5.18;4.68;;;1.20;96.80;;;;;;5076355;28;20612;-65
2022/01/14 01:21:34;;;;;;;5.10;4.70;;;1.00;97.40;;;;;;5069394;28;20197;-65
2022/01/14 01:24:02;;;;;;;4.63;4.30;;;0.90;97.80;;;;;;5071389;28;20249;-65
2022/01/14 01:26:33;;;;;;;4.60;4.20;;;1.00;98.00;;;;;;5069572;28;20592;-65
2022/01/14 01:29:18;;;;;;;4.88;4.55;;;1.00;98.00;;;;;;5070751;28;20692;-65
2022/01/14 01:31:45;;;;;;;4.82;4.43;;;1.00;98.00;;;;;;5076841;28;20203;-65
2022/01/14 01:34:14;;;;;;;4.78;4.47;;;1.00;97.60;;;;;;5062388;28;20221;-65
2022/01/14 01:36:43;;;;;;;4.43;4.15;;;1.10;97.60;;;;;;5069845;28;20255;-65
2022/01/14 01:39:13;;;;;;;4.03;3.83;;;1.30;97.20;;;;;;5069252;28;20724;-65
2022/01/14 01:41:44;;;;;;;4.72;4.32;;;1.30;97.30;;;;;;5069542;28;20194;-65
2022/01/14 01:44:12;;;;;;;4.20;3.90;;;1.40;97.20;;;;;;5067399;28;20596;-65
2022/01/14 01:46:42;;;;;;;4.43;4.13;;;1.30;97.00;;;;;;5075819;28;20430;-65
2022/01/14 01:49:11;;;;;;;4.40;4.10;;;1.40;97.10;;;;;;5077671;28;20588;-65
2022/01/14 01:51:39;;;;;;;4.07;3.88;;;1.40;97.10;;;;;;5075075;28;20201;-65
2022/01/14 01:54:07;;;;;;;3.83;3.60;;;1.40;97.30;;;;;;5076934;28;20578;-65
2022/01/14 01:56:34;;;;;;;4.43;4.13;;;1.40;97.40;;;;;;5072578;28;20194;-65
2022/01/14 01:59:03;;;;;;;3.85;3.65;;;1.50;97.40;;;;;;5078230;28;20237;-65
2022/01/14 02:01:30;;;;;;;3.58;3.38;;;1.50;97.30;;;;;;5074644;28;20550;-65
2022/01/14 02:03:58;;;;;;;4.07;3.80;;;1.50;97.40;;;;;;5072497;28;20642;-65
2022/01/14 02:06:25;;;;;;;3.53;3.22;;;1.50;97.20;;;;;;5077063;28;20191;-65
2022/01/14 02:08:53;;;;;;;3.67;3.47;;;1.50;97.00;;;;;;5070709;28;20198;-65
2022/01/14 02:11:20;;;;;;;3.33;3.13;;;1.40;97.10;;;;;;5078750;28;20202;-65
2022/01/14 02:13:49;;;;;;;3.22;3.03;;;1.40;97.10;;;;;;5075557;28;20695;-65
2022/01/14 02:16:30;;;;;;;4.35;3.67;;;1.40;97.40;;;;;;5073520;28;20198;-65
2022/01/14 02:19:13;;;;;;;3.67;3.40;;;1.40;97.60;;;;;;5074901;28;20214;-65
2022/01/14 02:27:18;;;;;;;3.83;3.63;;;1.30;97.80;;;;;;5069074;28;20236;-65
2022/01/14 02:29:45;;;;;;;3.97;3.78;;;1.30;97.80;;;;;;5078590;28;20271;-65
2022/01/14 02:32:12;;;;;;;3.40;3.20;;;1.40;98.00;;;;;;5075758;28;20648;-65
2022/01/14 02:34:39;;;;;;;3.80;3.60;;;1.40;97.90;;;;;;5072002;28;20217;-65
2022/01/14 02:37:08;;;;;;;3.63;3.42;;;1.40;98.00;;;;;;5076860;28;20267;-65
2022/01/14 02:39:35;;;;;;;3.80;3.60;;;1.50;97.80;;;;;;5070896;28;20222;-65
2022/01/14 02:42:02;;;;;;;4.10;3.80;;;1.50;97.40;;;;;;5077558;28;20589;-64
2022/01/14 02:44:31;;;;;;;3.55;3.33;;;1.50;97.40;;;;;;5074867;28;20286;-65
2022/01/14 02:47:05;;;;;;;4.65;4.45;;;1.50;97.20;;;;;;5071797;28;21225;-65
2022/01/14 02:49:34;;;;;;;3.30;3.10;;;1.50;97.30;;;;;;5078182;28;20710;-64
2022/01/14 02:52:04;;;;;;;4.20;3.90;;;1.40;97.30;;;;;;5076831;28;20194;-65
2022/01/14 02:54:40;;;;;;;3.70;3.50;;;1.40;97.30;;;;;;5081745;28;20232;-65
2022/01/14 02:57:09;;;;;;;4.20;4.00;;;1.40;97.30;;;;;;5074356;28;20194;-65
2022/01/14 02:59:40;;;;;;;3.45;3.25;;;1.40;97.60;;;;;;5073463;28;20245;-65
2022/01/14 03:02:09;;;;;;;3.90;3.70;;;1.40;97.60;;;;;;5072391;28;20238;-65
2022/01/14 03:04:39;;;;;;;4.20;3.95;;;1.40;97.50;;;;;;5070104;28;20225;-65
2022/01/14 03:07:08;;;;;;;4.28;3.95;;;1.40;97.40;;;;;;5066020;28;20683;-65
2022/01/14 03:09:38;;;;;;;4.20;3.80;;;1.40;97.70;;;;;;5074376;28;20361;-65
2022/01/14 03:12:05;;;;;;;3.80;3.55;;;1.40;97.90;;;;;;5070414;28;20198;-65
2022/01/14 03:14:33;;;;;;;3.85;3.65;;;1.30;98.40;;;;;;5074028;28;20217;-64
2022/01/14 03:17:01;;;;;;;3.72;3.53;;;1.20;98.70;;;;;;5072285;28;20205;-65
2022/01/14 03:19:29;;;;;;;3.28;3.08;;;1.10;98.60;;;;;;5068175;28;20215;-65
2022/01/14 03:22:06;;;;;;;3.65;3.45;;;1.10;98.70;;;;;;5066384;28;20201;-65
2022/01/14 03:27:19;;;;;;;4.18;3.88;;;1.00;99.10;;;;;;5065933;28;20678;-65
2022/01/14 03:29:46;;;;;;;3.83;3.63;;;0.90;98.80;;;;;;5074386;28;20221;-65
2022/01/14 03:32:13;;;;;;;4.00;3.75;;;0.90;99.10;;;;;;5070896;28;20653;-65
2022/01/14 03:34:42;;;;;;;3.42;3.22;;;1.00;99.00;;;;;;5070959;28;20221;-65
2022/01/14 03:37:09;;;;;;;3.50;3.30;;;1.00;98.90;;;;;;5073906;28;20264;-65
2022/01/14 03:39:37;;;;;;;3.75;3.55;;;1.00;98.70;;;;;;5074885;28;20214;-65
2022/01/14 03:42:05;;;;;;;4.25;3.95;;;1.00;98.80;;;;;;5068921;28;20762;-65
2022/01/14 03:44:34;;;;;;;4.07;3.85;;;1.00;98.90;;;;;;5074200;28;20225;-65
2022/01/14 03:47:01;;;;;;;4.25;4.00;;;1.10;98.50;;;;;;5071075;28;20676;-65
2022/01/14 03:49:28;;;;;;;4.10;3.80;;;1.10;98.80;;;;;;5071059;28;20203;-65
2022/01/14 03:51:55;;;;;;;3.88;3.67;;;1.00;98.70;;;;;;5069867;28;20252;-65
2022/01/14 03:54:23;;;;;;;4.07;3.83;;;1.00;98.70;;;;;;5074926;28;20467;-65
2022/01/14 03:56:51;;;;;;;4.50;4.20;;;1.00;98.70;;;;;;5068890;28;20198;-65
2022/01/14 03:59:18;;;;;;;4.18;3.92;;;1.00;99.00;;;;;;5073069;28;20208;-65
2022/01/14 04:01:46;;;;;;;3.97;3.78;;;0.90;99.40;;;;;;5068070;28;20203;-65
2022/01/14 04:04:13;;;;;;;3.70;3.50;;;0.90;99.30;;;;;;5071435;28;20226;-65
2022/01/14 04:06:40;;;;;;;3.83;3.63;;;0.90;99.20;;;;;;5074853;28;20217;-65
2022/01/14 04:09:07;;;;;;;4.22;4.03;;;0.90;99.10;;;;;;5068939;28;20557;-65
2022/01/14 04:11:35;;;;;;;3.80;3.58;;;1.00;99.00;;;;;;5071739;28;20214;-65
2022/01/14 04:15:36;;;;;;;4.13;3.83;;;1.00;99.00;;;;;;5070136;28;20217;-65
2022/01/14 04:16:57;;;;;;;3.42;3.22;;;1.00;99.10;;;;;;5069228;28;20703;-65
2022/01/14 04:19:27;;;;;;;4.13;3.83;;;1.00;98.90;;;;;;5073098;28;20222;-65
2022/01/14 04:21:54;;;;;;;3.92;3.72;;;1.00;98.80;;;;;;5073716;28;20305;-65
2022/01/14 04:24:22;;;;;;;4.15;3.85;;;1.00;99.00;;;;;;5073659;28;20229;-65
2022/01/14 04:26:49;;;;;;;4.30;4.00;;;1.00;99.00;;;;;;5068296;28;20781;-65
2022/01/14 04:29:16;;;;;;;4.10;3.80;;;1.00;99.20;;;;;;5072734;28;20612;-65
2022/01/14 04:31:43;;;;;;;3.95;3.75;;;1.00;99.00;;;;;;5075722;28;20224;-65
2022/01/14 04:34:11;;;;;;;4.57;4.28;;;1.10;99.00;;;;;;5074241;28;20209;-65
2022/01/14 04:36:38;;;;;;;4.55;4.25;;;1.10;98.90;;;;;;5071215;28;20241;-66
2022/01/14 04:39:05;;;;;;;4.75;4.35;;;1.10;98.90;;;;;;5066986;28;20255;-66
2022/01/14 04:41:32;;;;;;;4.22;3.95;;;1.10;99.00;;;;;;5074734;28;20704;-66
2022/01/14 04:43:59;;;;;;;4.35;4.05;;;1.10;99.00;;;;;;5071276;28;20287;-66
2022/01/14 04:49:12;;;;;;;3.63;3.42;;;1.10;99.00;;;;;;5067780;28;20201;-67
2022/01/14 04:51:39;;;;;;;4.35;4.05;;;1.10;99.10;;;;;;5072536;28;20285;-66
2022/01/14 04:54:06;;;;;;;4.00;3.80;;;1.10;99.00;;;;;;5072601;28;20217;-66
2022/01/14 04:56:34;;;;;;;4.35;4.15;;;1.10;99.00;;;;;;5072670;28;20210;-66
2022/01/14 04:59:01;;;;;;;3.78;3.58;;;1.10;99.00;;;;;;5079301;28;20281;-66
2022/01/14 05:01:29;;;;;;;3.90;3.70;;;1.10;99.20;;;;;;5065408;28;20305;-66
2022/01/14 05:03:58;;;;;;;3.88;3.67;;;1.10;99.40;;;;;;5106454;22;20233;-74
2022/01/14 05:06:27;;;;;;;3.78;3.58;;;1.10;99.70;;;;;;5053134;28;20215;-74
2022/01/14 05:08:55;;;;;;;4.30;4.00;;;1.10;99.90;;;;;;5056984;28;20572;-74
2022/01/14 05:11:35;;;;;;;3.90;3.67;;;1.10;99.90;;;;;;5058654;28;20222;-74
2022/01/14 05:14:02;;;;;;;4.22;4.03;;;1.10;99.90;;;;;;5060230;28;20276;-74
2022/01/14 05:16:29;;;;;;;4.15;3.95;;;1.20;99.50;;;;;;5056944;28;20225;-74
2022/01/14 05:18:56;;;;;;;4.05;3.80;;;1.20;99.30;;;;;;5058122;28;20752;-75
2022/01/14 05:21:23;;;;;;;4.85;4.53;;;1.20;99.20;;;;;;5056088;28;20226;-74
2022/01/14 05:23:52;;;;;;;4.25;3.97;;;1.20;99.60;;;;;;5059035;28;20215;-74
2022/01/14 05:26:19;;;;;;;4.47;4.18;;;1.10;99.70;;;;;;5058922;28;20225;-74
2022/01/14 05:28:46;;;;;;;4.30;4.07;;;1.10;99.90;;;;;;5059100;28;20199;-74
2022/01/14 05:31:13;;;;;;;4.47;4.18;;;1.10;99.90;;;;;;5061292;28;20219;-74
2022/01/14 05:33:42;;;;;;;3.78;3.58;;;1.10;99.90;;;;;;5055595;28;20283;-74
2022/01/14 05:36:09;;;;;;;4.00;3.80;;;1.00;99.90;;;;;;5059142;28;20285;-74
2022/01/14 05:38:36;;;;;;;4.45;4.15;;;1.00;99.90;;;;;;5055224;28;20248;-74
2022/01/14 05:41:04;;;;;;;4.38;4.07;;;1.00;99.90;;;;;;5060907;28;21002;-74
2022/01/14 05:43:31;;;;;;;4.20;3.90;;;1.00;99.90;;;;;;5064798;28;20206;-73
2022/01/14 05:45:58;;;;;;;4.18;3.95;;;1.00;99.90;;;;;;5073027;28;20742;-74
2022/01/14 05:48:25;;;;;;;4.25;3.95;;;0.90;99.90;;;;;;5066140;28;20253;-74
2022/01/14 05:50:52;;;;;;;3.53;3.33;;;0.90;99.90;;;;;;5061961;28;20217;-74
2022/01/14 05:53:19;;;;;;;3.45;3.25;;;1.00;99.90;;;;;;5063193;28;20202;-74
2022/01/14 05:55:46;;;;;;;4.25;3.85;;;0.90;99.90;;;;;;5056882;28;20219;-74
2022/01/14 05:58:15;;;;;;;3.60;3.40;;;1.00;99.90;;;;;;5062300;28;20195;-74
2022/01/14 06:00:42;;;;;;;4.22;4.03;;;1.00;99.90;;;;;;5065289;28;20218;-74
2022/01/14 06:03:09;;;;;;;3.42;3.33;;;1.00;99.90;;;;;;5061982;28;20210;-74
2022/01/14 06:05:36;;;;;;;3.78;3.58;;;1.00;99.90;;;;;;5075707;28;20213;-74
2022/01/14 06:08:03;;;;;;;3.47;3.38;;;1.10;99.90;;;;;;5083900;28;20197;-74
2022/01/14 06:10:30;;;;;;;3.60;3.30;;;1.10;99.90;;;;;;5063638;28;20777;-74
2022/01/14 06:12:57;;;;;;;3.70;3.50;;;1.10;99.90;;;;;;5062257;28;20194;-74
2022/01/14 06:15:25;;;;;;;3.40;3.20;;;1.10;99.90;;;;;;5056498;28;20710;-74
2022/01/14 06:17:52;;;;;;;3.70;3.50;;;1.10;99.90;;;;;;5063620;28;20206;-74
2022/01/14 06:20:19;;;;;;;3.88;3.63;;;1.10;99.90;;;;;;5061178;28;20222;-74
2022/01/14 06:22:46;;;;;;;3.35;3.15;;;1.10;99.90;;;;;;5062636;28;20281;-74
2022/01/14 06:25:14;;;;;;;3.85;3.65;;;1.10;99.90;;;;;;5056593;28;20292;-74
2022/01/14 06:27:41;;;;;;;4.25;3.95;;;1.00;99.90;;;;;;5062923;28;20198;-75
2022/01/14 06:30:09;;;;;;;4.38;4.07;;;1.00;99.90;;;;;;5062226;28;20190;-74
2022/01/14 06:32:41;;;;;;;4.85;4.55;;;1.00;99.90;;;;;;5058837;28;20198;-74
2022/01/14 06:35:09;;;;;;;3.55;3.35;;;1.00;99.90;;;;;;5061030;28;20221;-74
2022/01/14 06:37:36;;;;;;;3.65;3.38;;;1.00;99.90;;;;;;5065305;28;20186;-74
2022/01/14 06:40:04;;;;;;;3.50;3.30;;;1.00;99.90;;;;;;5074440;28;20222;-74
2022/01/14 06:42:31;;;;;;;3.75;3.55;;;1.00;99.90;;;;;;5061789;28;20195;-74
2022/01/14 06:44:58;;;;;;;4.18;3.97;;;1.00;99.90;;;;;;5060990;28;20261;-75
2022/01/14 06:47:25;;;;;;;4.28;3.97;;;0.90;99.90;;;;;;5057128;28;20217;-74
2022/01/14 06:49:54;;;;;;;3.85;3.65;;;0.90;99.90;;;;;;5059270;28;20604;-74
2022/01/14 06:52:21;;;;;;;4.03;3.72;;;0.80;99.90;;;;;;5064911;28;20210;-74
2022/01/14 06:54:48;;;;;;;3.90;3.70;;;0.80;99.90;;;;;;5060831;28;20300;-74
2022/01/14 06:57:15;;;;;;;3.88;3.67;;;0.70;99.90;;;;;;5060588;28;20641;-74
2022/01/14 06:59:42;;;;;;;4.00;3.72;;;0.70;99.90;;;;;;5060735;28;20213;-74
2022/01/14 07:02:10;;;;;;;4.95;4.63;;;0.70;99.90;;;;;;5058366;28;20214;-74
2022/01/14 07:04:38;;;;;;;4.80;4.50;;;0.80;99.90;;;;;;5062977;28;20214;-74
2022/01/14 07:07:06;;;;;;;4.55;4.25;;;0.70;99.90;;;;;;5063528;28;20222;-74
2022/01/14 07:09:55;;;;;;;4.35;4.05;;;0.80;99.90;;;;;;5052069;28;20264;-75
2022/01/14 07:12:23;;;;;;;4.88;4.57;;;0.80;99.90;;;;;;5057538;28;20776;-75
2022/01/14 07:14:50;;;;;;;5.03;4.63;;;0.80;99.90;;;;;;5060150;28;20305;-75
2022/01/14 07:17:17;;;;;;;4.72;4.30;;;0.80;99.90;;;;;;5056173;28;20268;-75
2022/01/14 07:19:46;;;;;;;5.00;4.70;;;0.80;99.90;;;;;;5052722;28;20545;-74
2022/01/14 07:22:14;;;;;;;4.70;4.40;;;0.90;99.90;;;;;;5056860;28;20911;-74
2022/01/14 07:24:41;;;;;;;4.80;4.50;;;1.00;99.90;;;;;;5057429;28;20234;-75
2022/01/14 07:27:09;;;;;;;5.20;4.80;;;1.00;99.90;;;;;;5060667;28;20283;-74
2022/01/14 07:29:36;;;;;;;4.88;4.57;;;1.00;99.90;;;;;;5058555;28;20217;-75
2022/01/14 07:32:03;;;;;;;4.50;4.10;;;1.10;99.90;;;;;;5060586;28;20263;-75
2022/01/14 07:34:30;;;;;;;4.40;4.10;;;1.10;99.90;;;;;;5065687;28;20219;-75
2022/01/14 07:36:57;;;;;;;4.28;4.00;;;1.10;99.90;;;;;;5058060;28;20213;-75
2022/01/14 07:39:26;;;;;;;3.63;3.42;;;1.20;99.90;;;;;;5060381;28;20206;-75
2022/01/14 07:41:53;;;;;;;4.03;3.83;;;1.20;99.90;;;;;;5057297;28;20609;-75
2022/01/14 07:44:21;;;;;;;4.05;3.85;;;1.20;99.90;;;;;;5056289;28;20230;-75
2022/01/14 07:46:49;;;;;;;4.15;3.92;;;1.30;99.90;;;;;;5052461;28;20230;-74
2022/01/14 07:49:16;;;;;;;4.68;4.32;;;1.30;99.90;;;;;;5058370;28;20201;-74
2022/01/14 07:51:43;;;;;;;4.93;4.53;;;1.30;99.90;;;;;;5056435;28;20226;-75
2022/01/14 07:54:11;;;;;;;4.63;4.22;;;1.40;99.90;;;;;;5056506;28;20301;-75
2022/01/14 07:56:45;;;;;;;4.38;4.07;;;1.40;99.90;;;;;;5057236;28;20218;-74
2022/01/14 07:59:13;;;;;;;4.45;4.15;;;1.40;99.90;;;;;;5055283;28;20419;-75
2022/01/14 08:01:42;;;;;;;5.10;4.70;;;1.40;99.90;;;;;;5054778;28;20234;-74
2022/01/14 08:04:09;;;;;;;4.50;4.20;;;1.40;99.90;;;;;;5057936;28;20221;-75
2022/01/14 08:06:44;;;;;;;4.00;3.80;;;1.40;99.90;;;;;;5057128;28;20544;-74
2022/01/14 08:09:11;;;;;;;4.28;3.97;;;1.30;99.90;;;;;;5056071;28;20202;-75
2022/01/14 08:11:40;;;;;;;4.55;4.25;;;1.30;99.90;;;;;;5056318;28;20222;-74
2022/01/14 08:14:07;;;;;;;4.68;4.38;;;1.30;99.90;;;;;;5055336;28;20221;-76
2022/01/14 08:16:34;;;;;;;4.63;4.30;;;1.30;99.90;;;;;;5058470;28;20218;-75
2022/01/14 08:19:02;;;;;;;5.10;4.65;;;1.30;99.90;;;;;;5060019;28;20215;-76
2022/01/14 08:21:29;;;;;;;9.95;5.22;;;1.40;99.90;;;;;;5058796;28;20230;-75
2022/01/14 08:23:56;;;;;;;6.25;4.72;;;1.70;99.90;;;;;;5056426;28;20218;-75
2022/01/14 08:26:24;;;;;;;8.35;4.70;;;3.30;99.90;;;;;;5060172;28;20245;-76
2022/01/14 08:28:53;;;;;;;5.07;4.57;;;4.80;99.90;;;;;;5060226;28;20494;-75
2022/01/14 08:31:22;;;;;;;5.18;4.78;;;5.90;99.30;;;;;;5053067;28;20708;-76
2022/01/14 08:33:49;;;;;;;5.63;5.13;;;6.60;97.80;;;;;;5051982;28;20219;-76
2022/01/14 08:36:16;;;;;;;5.88;5.10;;;7.20;96.90;;;;;;5057568;28;20222;-77
2022/01/14 08:38:43;;;;;;;5.30;4.90;;;7.60;96.20;;;;;;5082690;28;20209;-77
2022/01/14 08:41:10;;;;;;;8.45;4.97;;;8.10;95.20;;;;;;5064613;28;20272;-75
2022/01/14 08:43:37;;;;;;;5.72;5.22;;;8.30;95.00;;;;;;5052439;28;20217;-76
2022/01/14 08:46:06;;;;;;;5.43;4.97;;;8.50;94.80;;;;;;5053794;28;20222;-77
2022/01/14 08:48:33;;;;;;;6.82;5.32;;;8.70;94.80;;;;;;5052289;28;20194;-75
2022/01/14 08:51:00;;;;;;;5.00;4.50;;;9.00;94.60;;;;;;5057684;28;20267;-75
2022/01/14 08:53:27;;;;;;;5.00;4.50;;;9.10;94.40;;;;;;5052145;28;20695;-77
2022/01/14 08:55:54;;;;;;;5.35;4.55;;;9.30;93.70;;;;;;5053247;28;20450;-76
2022/01/14 08:58:21;;;;;;;5.32;4.82;;;9.50;93.40;;;;;;5059103;28;20202;-76
2022/01/14 09:00:49;;;;;;;4.20;3.78;;;9.30;93.60;;;;;;5053443;28;20225;-76
2022/01/14 09:03:18;;;;;;;5.63;5.03;;;9.30;93.30;;;;;;5053875;28;20281;-76
2022/01/14 09:05:45;;;;;;;5.85;4.28;;;9.60;93.30;;;;;;5053923;28;20868;-76
2022/01/14 09:08:12;;;;;;;8.73;4.28;;;9.90;92.70;;;;;;5060054;28;20403;-77
2022/01/14 09:10:40;;;;;;;4.75;4.25;;;10.20;92.10;;;;;;5055935;28;20205;-75
2022/01/14 09:13:07;;;;;;;5.35;4.22;;;10.10;92.30;;;;;;5054220;28;20277;-76
2022/01/14 09:15:35;;;;;;;4.70;4.30;;;10.60;92.40;;;;;;5056734;28;20259;-76
2022/01/14 09:18:02;;;;;;;4.03;3.63;;;11.00;91.80;;;;;;5056478;28;20198;-75
2022/01/14 09:20:30;;;;;;;5.20;4.40;;;11.50;91.20;;;;;;5068226;28;20471;-76
2022/01/14 09:22:59;;;;;;;5.18;4.68;;;12.00;90.70;;;;;;5067364;28;20594;-75
2022/01/14 09:25:26;;;;;;;5.50;4.90;;;12.80;89.50;;;;;;5051393;28;20218;-76
2022/01/14 09:27:53;;;;;;;6.50;4.90;;;14.00;86.40;;;;;;5054661;28;20240;-75
2022/01/14 09:30:21;;;;;;;5.13;4.63;;;15.30;82.00;;;;;;5056021;28;20202;-75
2022/01/14 09:32:49;;;;;;;4.47;4.07;;;16.80;76.80;;;;;;5059090;28;20221;-75
2022/01/14 09:35:17;;;;;;;5.90;4.13;;;18.20;69.90;;;;;;5055853;28;20218;-75
2022/01/14 09:37:47;;;;;;;5.43;4.55;;;19.30;67.00;;;;;;5054966;28;20221;-76
2022/01/14 09:40:16;;;;;;;4.75;4.20;;;20.10;65.00;;;;;;5058071;28;20253;-75
2022/01/14 09:42:47;;;;;;;6.45;5.20;;;20.50;62.40;;;;;;5057433;28;20536;-74
2022/01/14 09:45:14;;;;;;;5.18;4.35;;;21.10;61.30;;;;;;5060146;28;20708;-76
2022/01/14 09:47:42;;;;;;;7.47;4.68;;;21.30;59.80;;;;;;5058446;28;20214;-76
2022/01/14 09:50:10;;;;;;;5.47;4.35;;;21.30;59.10;;;;;;5058429;28;20459;-76
2022/01/14 09:52:37;;;;;;;5.60;4.55;;;21.50;58.70;;;;;;5059070;28;20263;-75
2022/01/14 09:55:06;;;;;;;5.30;4.80;;;21.60;58.30;;;;;;5056688;28;20222;-76
2022/01/14 09:57:33;;;;;;;5.15;4.65;;;21.30;58.20;;;;;;5060727;28;20228;-76
2022/01/14 10:00:02;;;;;;;5.30;4.47;;;20.40;58.20;;;;;;5061014;28;20256;-77
2022/01/14 10:02:32;;;;;;;8.65;5.78;;;19.30;60.50;;;;;;5057233;28;20598;-75
2022/01/14 10:04:59;;;;;;;5.82;4.88;;;17.90;63.50;;;;;;5056891;28;20299;-75
2022/01/14 10:07:26;;;;;;;4.95;4.55;;;17.10;66.60;;;;;;5061739;28;20300;-76
2022/01/14 10:09:58;;;;;;;6.80;4.97;;;16.10;68.40;;;;;;5061996;28;20248;-76
2022/01/14 10:12:27;;;;;;;5.20;4.70;;;15.10;71.80;;;;;;5062861;28;20214;-77
2022/01/14 10:14:56;;;;;;;5.60;5.05;;;14.50;74.10;;;;;;5069622;28;20256;-78
2022/01/14 10:17:24;;;;;;;9.02;5.13;;;14.10;78.00;;;;;;5069197;28;20221;-76
2022/01/14 10:19:52;;;;;;;5.60;4.80;;;13.60;79.40;;;;;;5060525;28;20458;-75
2022/01/14 10:22:25;;;;;;;6.40;4.75;;;13.40;81.10;;;;;;5053173;28;20572;-76
2022/01/14 10:24:57;;;;;;;4.85;4.35;;;13.30;79.80;;;;;;5060776;28;20219;-76
2022/01/14 10:27:34;;;;;;;5.55;4.85;;;13.00;82.60;;;;;;5062307;28;20228;-76
2022/01/14 10:30:14;;;;;;;5.22;4.53;;;13.10;82.90;;;;;;5059369;28;20653;-77
2022/01/14 10:32:43;;;;;;;5.13;4.50;;;13.00;82.40;;;;;;5060476;28;20218;-77
2022/01/14 10:35:12;;;;;;;5.82;4.78;;;13.10;81.80;;;;;;5059284;28;20218;-76
2022/01/14 10:37:39;;;;;;;4.88;4.38;;;13.00;82.00;;;;;;5057256;28;20789;-77
2022/01/14 10:40:14;;;;;;;5.63;5.03;;;12.80;81.70;;;;;;5059025;28;20195;-76
2022/01/14 10:42:44;;;;;;;5.13;4.65;;;12.70;83.00;;;;;;5059096;28;20222;-76
2022/01/14 10:45:21;;;;;;;5.20;4.55;;;12.50;82.60;;;;;;5057068;28;20345;-76
2022/01/14 10:47:56;;;;;;;5.72;5.15;;;12.40;82.50;;;;;;5057351;28;20719;-76
2022/01/14 10:50:36;;;;;;;4.75;4.20;;;12.30;83.70;;;;;;5058856;28;20201;-75
2022/01/14 10:53:10;;;;;;;6.40;5.07;;;12.30;83.70;;;;;;5057746;28;20225;-76
2022/01/14 10:55:39;;;;;;;6.35;4.53;;;12.30;84.40;;;;;;5057391;28;20206;-76
2022/01/14 10:58:12;;;;;;;5.15;4.65;;;12.40;84.30;;;;;;5062337;28;20268;-76
2022/01/14 11:00:42;;;;;;;5.00;4.50;;;12.50;83.20;;;;;;5056078;28;20245;-76
2022/01/14 11:03:10;;;;;;;9.50;4.40;;;12.50;83.90;;;;;;5058411;28;20261;-75
2022/01/14 11:05:37;;;;;;;4.68;4.25;;;12.50;84.10;;;;;;5072803;22;20579;-69
2022/01/14 11:08:05;;;;;;;4.70;4.10;;;12.70;84.10;;;;;;5047343;28;20224;-71
2022/01/14 11:10:35;;;;;;;5.07;4.57;;;12.80;83.50;;;;;;5051524;28;20206;-72
2022/01/14 11:13:03;;;;;;;6.50;4.50;;;12.90;83.50;;;;;;5056734;28;20229;-70
2022/01/14 11:15:33;;;;;;;5.00;4.30;;;13.10;84.30;;;;;;5048789;28;20733;-71
2022/01/14 11:18:04;;;;;;;5.80;4.85;;;13.10;83.20;;;;;;5043615;28;20707;-74
2022/01/14 11:20:34;;;;;;;4.70;4.15;;;13.10;84.10;;;;;;5052289;28;20706;-72
2022/01/14 11:23:16;;;;;;;9.45;4.72;;;13.20;82.20;;;;;;5042607;28;20231;-71
2022/01/14 11:25:51;;;;;;;5.70;4.57;;;13.20;82.90;;;;;;5043177;28;20247;-74
2022/01/14 11:28:27;;;;;;;5.03;4.53;;;13.30;82.60;;;;;;5045916;28;20218;-70
2022/01/14 11:30:56;;;;;;;4.90;4.40;;;13.50;83.60;;;;;;5051496;28;20194;-72
2022/01/14 11:33:40;;;;;;;6.45;4.35;;;13.30;82.00;;;;;;5049249;28;20229;-75
2022/01/14 11:36:07;;;;;;;4.65;4.25;;;13.20;82.60;;;;;;5045795;28;20209;-74
2022/01/14 11:38:41;;;;;;;5.45;3.70;;;13.10;82.10;;;;;;5043247;28;20688;-73
2022/01/14 11:41:09;;;;;;;4.38;3.83;;;12.90;82.70;;;;;;5042506;28;20203;-72
2022/01/14 11:43:45;;;;;;;6.20;4.50;;;12.80;83.50;;;;;;5038162;28;20195;-72
2022/01/14 11:46:16;;;;;;;6.60;5.72;;;12.70;83.30;;;;;;5042348;28;20229;-73
2022/01/14 11:48:48;;;;;;;4.75;4.22;;;12.70;84.30;;;;;;5039934;28;20214;-70
2022/01/14 11:51:17;;;;;;;6.18;4.80;;;12.80;83.90;;;;;;5043897;28;20202;-72
2022/01/14 11:53:50;;;;;;;5.82;4.95;;;12.80;83.50;;;;;;5042964;28;20202;-70
2022/01/14 11:56:47;;;;;;;5.30;4.80;;;12.90;83.70;;;;;;5043721;28;22195;-70
2022/01/14 11:59:40;;;;;;;6.63;4.40;;;13.00;82.40;;;;;;5036702;28;20746;-70
2022/01/14 12:02:29;;;;;;;8.70;5.18;;;13.00;82.50;;;;;;5041936;28;20219;-72
2022/01/14 12:05:15;;;;;;;7.57;5.20;;;13.00;82.90;;;;;;5041624;28;20265;-71
2022/01/14 12:08:11;;;;;;;8.20;6.43;;;13.10;83.70;;;;;;5041927;28;20223;-71
2022/01/14 12:10:41;;;;;;;7.55;4.78;;;13.20;83.60;;;;;;5045880;28;20566;-71
2022/01/14 12:13:38;;;;;;;6.00;4.88;;;13.30;85.50;;;;;;5039292;28;20313;-70
2022/01/14 12:16:08;;;;;;;7.93;5.53;;;13.50;84.10;;;;;;5046620;28;20225;-69
2022/01/14 12:19:13;;;;;;;5.97;4.40;;;13.50;84.70;;;;;;5038679;28;20250;-70
2022/01/14 12:22:03;;;;;;;5.07;4.03;;;13.40;83.90;;;;;;5044040;28;20576;-69
2022/01/14 12:24:38;;;;;;;7.57;4.40;;;13.50;87.10;;;;;;5040521;28;20646;-69
2022/01/14 12:27:41;;;;;;;6.60;4.93;;;13.50;84.20;;;;;;5038462;28;20319;-70
2022/01/14 12:30:11;;;;;;;6.10;4.38;;;13.30;84.50;;;;;;4993163;28;20205;-73
2022/01/14 12:32:41;;;;;;;6.95;4.82;;;13.30;85.40;;;;;;5040115;28;20284;-71
2022/01/14 12:35:13;;;;;;;6.85;4.70;;;13.50;86.50;;;;;;5039694;28;20229;-71
2022/01/14 12:37:46;;;;;;;6.80;4.75;;;13.50;84.50;;;;;;5040142;28;20319;-70
2022/01/14 12:40:15;;;;;;;5.25;4.75;;;13.60;85.50;;;;;;5038511;28;20210;-70
2022/01/14 12:42:48;;;;;;;7.80;5.22;;;13.50;85.70;;;;;;5045847;28;20226;-70
2022/01/14 12:45:51;;;;;;;9.60;8.43;;;13.60;84.60;;;;;;5043737;28;20256;-70
2022/01/14 12:48:39;;;;;;;8.25;6.72;;;13.70;84.40;;;;;;5041712;28;20225;-70
2022/01/14 12:51:09;;;;;;;7.15;6.45;;;13.70;84.00;;;;;;5046911;28;20203;-70
2022/01/14 12:53:46;;;;;;;6.47;5.80;;;13.70;83.30;;;;;;5043146;28;20240;-70
2022/01/14 12:56:18;;;;;;;4.85;4.38;;;13.80;83.00;;;;;;5046117;28;20269;-70
2022/01/14 12:58:53;;;;;;;5.10;4.60;;;13.50;83.30;;;;;;5054403;28;20229;-70
2022/01/14 13:01:24;;;;;;;5.10;4.45;;;13.40;82.80;;;;;;5054708;28;20199;-70
2022/01/14 13:03:54;;;;;;;4.80;4.30;;;13.30;83.20;;;;;;5051903;28;20226;-70
2022/01/14 13:06:21;;;;;;;5.30;4.65;;;13.20;83.40;;;;;;5056358;28;20198;-70
2022/01/14 13:08:58;;;;;;;5.25;4.05;;;13.10;83.60;;;;;;5050790;28;20278;-69
2022/01/14 13:11:25;;;;;;;4.38;3.97;;;13.00;83.90;;;;;;5054585;28;20203;-70
2022/01/14 13:13:59;;;;;;;4.43;3.63;;;13.00;84.00;;;;;;5055739;28;20227;-70
2022/01/14 13:16:26;;;;;;;4.30;3.90;;;13.00;84.40;;;;;;5049178;28;20565;-69
2022/01/14 13:18:55;;;;;;;4.55;4.15;;;13.00;84.30;;;;;;5052091;28;20219;-72
2022/01/14 13:21:23;;;;;;;4.40;4.00;;;12.90;84.20;;;;;;5050655;28;20218;-70
2022/01/14 13:23:50;;;;;;;4.43;4.03;;;12.70;84.30;;;;;;5050073;28;20230;-70